createdAt,value
2023-04-26T00:01:32.014Z,6.05
2023-04-26T00:04:02.541Z,4.10
2023-04-26T00:09:15.736Z,8.65
2023-04-26T00:11:42.973Z,4.05
2023-04-26T00:14:09.786Z,5.07
2023-04-26T00:16:36.606Z,5.65
2023-04-26T00:19:08.767Z,6.53
2023-04-26T00:21:41.079Z,5.85
2023-04-26T00:24:15.442Z,8.20
2023-04-26T00:26:42.085Z,8.02
2023-04-26T00:29:08.785Z,8.13
2023-04-26T00:31:35.621Z,6.57
2023-04-26T00:34:05.243Z,5.28
2023-04-26T00:36:32.795Z,6.05
2023-04-26T00:39:02.801Z,3.38
2023-04-26T00:41:30.011Z,6.10
2023-04-26T00:43:56.599Z,6.75
2023-04-26T00:46:23.612Z,8.82
2023-04-26T00:48:51.504Z,6.40
2023-04-26T00:51:30.254Z,7.18
2023-04-26T00:54:02.446Z,7.13
2023-04-26T00:56:30.910Z,10.40
2023-04-26T00:59:00.212Z,6.80
2023-04-26T01:01:26.968Z,7.85
2023-04-26T01:03:54.064Z,6.68
2023-04-26T01:06:21.170Z,6.03
2023-04-26T01:08:51.032Z,6.80
2023-04-26T01:11:19.939Z,5.95
2023-04-26T01:13:47.642Z,6.85
2023-04-26T01:16:25.499Z,8.65
2023-04-26T01:18:53.277Z,6.22
2023-04-26T01:21:24.403Z,7.30
2023-04-26T01:23:52.262Z,6.90
2023-04-26T01:26:33.648Z,8.85
2023-04-26T01:29:02.306Z,6.32
2023-04-26T01:31:29.191Z,4.93
2023-04-26T01:33:56.210Z,6.78
2023-04-26T01:36:28.788Z,4.63
2023-04-26T01:38:55.474Z,4.15
2023-04-26T01:41:24.950Z,5.07
2023-04-26T01:43:56.099Z,6.65
2023-04-26T01:46:22.957Z,3.92
2023-04-26T01:48:49.776Z,7.53
2023-04-26T01:51:19.196Z,7.38
2023-04-26T01:53:46.376Z,3.72
2023-04-26T01:56:18.484Z,4.88
2023-04-26T01:58:45.572Z,4.50
2023-04-26T02:01:12.527Z,5.20
2023-04-26T02:03:39.341Z,5.18
2023-04-26T02:06:06.244Z,5.13
2023-04-26T02:08:33.069Z,6.05
2023-04-26T02:11:06.012Z,5.07
2023-04-26T02:13:34.707Z,7.57
2023-04-26T02:16:01.445Z,3.95
2023-04-26T02:18:31.114Z,6.20
2023-04-26T02:20:57.745Z,5.70
2023-04-26T02:23:26.429Z,4.65
2023-04-26T02:25:53.963Z,10.27
2023-04-26T02:28:21.115Z,3.83
2023-04-26T02:30:50.321Z,4.30
2023-04-26T02:33:17.516Z,3.17
2023-04-26T02:35:44.196Z,5.43
2023-04-26T02:38:31.881Z,6.43
2023-04-26T02:41:03.194Z,4.32
2023-04-26T02:43:30.141Z,4.93
2023-04-26T02:45:59.074Z,2.78
2023-04-26T02:48:26.061Z,4.68
2023-04-26T02:50:53.249Z,6.45
2023-04-26T02:53:20.171Z,7.30
2023-04-26T02:55:46.990Z,6.60
2023-04-26T02:58:13.644Z,3.88
2023-04-26T03:00:48.849Z,3.63
2023-04-26T03:03:15.973Z,5.45
2023-04-26T03:05:46.845Z,4.45
2023-04-26T03:08:14.779Z,4.63
2023-04-26T03:10:55.977Z,4.25
2023-04-26T03:13:25.593Z,3.92
2023-04-26T03:15:53.689Z,3.60
2023-04-26T03:18:20.398Z,3.35
2023-04-26T03:20:47.154Z,3.15
2023-04-26T03:23:13.901Z,5.75
2023-04-26T03:25:41.537Z,4.32
2023-04-26T03:28:10.795Z,4.00
2023-04-26T03:30:38.976Z,6.30
2023-04-26T03:33:07.168Z,4.72
2023-04-26T03:35:34.036Z,6.72
2023-04-26T03:38:00.728Z,6.07
2023-04-26T03:40:30.688Z,5.18
2023-04-26T03:42:57.443Z,4.05
2023-04-26T03:45:27.244Z,4.47
2023-04-26T03:47:55.145Z,3.28
2023-04-26T03:50:25.103Z,7.13
2023-04-26T03:52:52.190Z,10.82
2023-04-26T03:55:22.057Z,13.32
2023-04-26T03:57:54.031Z,6.25
2023-04-26T04:00:23.822Z,4.55
2023-04-26T04:02:53.214Z,8.70
2023-04-26T04:05:20.144Z,8.00
2023-04-26T04:07:47.142Z,5.40
2023-04-26T04:10:28.418Z,3.63
2023-04-26T04:12:55.174Z,3.63
2023-04-26T04:15:21.931Z,5.55
2023-04-26T04:17:51.547Z,5.55
2023-04-26T04:20:18.539Z,7.75
2023-04-26T04:22:46.591Z,5.22
2023-04-26T04:25:14.438Z,5.25
2023-04-26T04:27:43.535Z,5.15
2023-04-26T04:30:14.918Z,9.40
2023-04-26T04:32:49.176Z,6.53
2023-04-26T04:35:16.031Z,2.47
2023-04-26T04:37:44.167Z,3.25
2023-04-26T04:40:11.946Z,5.40
2023-04-26T04:42:38.675Z,3.50
2023-04-26T04:45:10.493Z,7.13
2023-04-26T04:47:42.786Z,5.47
2023-04-26T04:50:17.825Z,8.43
2023-04-26T04:52:44.836Z,3.78
2023-04-26T04:55:12.865Z,6.30
2023-04-26T04:57:42.739Z,6.18
2023-04-26T05:00:12.994Z,9.55
2023-04-26T05:02:40.115Z,14.20
2023-04-26T05:05:10.278Z,9.45
2023-04-26T05:07:37.050Z,10.13
2023-04-26T05:10:11.004Z,6.68
2023-04-26T05:12:38.306Z,9.52
2023-04-26T05:15:06.933Z,9.57
2023-04-26T05:17:36.846Z,8.45
2023-04-26T05:20:08.047Z,8.45
2023-04-26T05:22:39.788Z,9.70
2023-04-26T05:25:10.941Z,8.82
2023-04-26T05:27:37.880Z,13.80
2023-04-26T05:30:07.477Z,9.23
2023-04-26T05:32:37.187Z,8.95
2023-04-26T05:35:12.933Z,9.85
2023-04-26T05:37:40.782Z,9.52
2023-04-26T05:40:11.506Z,13.35
2023-04-26T05:42:38.488Z,10.57
2023-04-26T05:45:06.003Z,10.98
2023-04-26T05:47:35.557Z,17.83
2023-04-26T05:50:14.549Z,10.25
2023-04-26T05:52:41.885Z,10.07
2023-04-26T05:55:09.103Z,18.00
2023-04-26T05:57:36.002Z,11.38
2023-04-26T06:01:14.575Z,17.27
2023-04-26T06:03:44.348Z,13.48
2023-04-26T06:06:20.282Z,10.40
2023-04-26T06:08:53.005Z,16.67
2023-04-26T06:11:19.793Z,11.00
2023-04-26T06:13:52.846Z,12.25
2023-04-26T06:16:19.892Z,12.95
2023-04-26T06:19:03.419Z,11.27
2023-04-26T06:21:33.942Z,10.13
2023-04-26T06:24:00.617Z,10.80
2023-04-26T06:26:27.252Z,10.20
2023-04-26T06:28:53.891Z,6.88
2023-04-26T06:31:23.476Z,7.47
2023-04-26T06:33:53.550Z,7.50
2023-04-26T06:36:20.562Z,12.18
2023-04-26T06:38:47.847Z,7.28
2023-04-26T06:41:28.480Z,12.57
2023-04-26T06:43:55.735Z,12.27
2023-04-26T06:46:30.305Z,10.43
2023-04-26T06:48:57.161Z,9.98
2023-04-26T06:51:26.470Z,9.57
2023-04-26T06:53:53.388Z,13.60
2023-04-26T06:56:30.584Z,10.43
2023-04-26T06:59:10.104Z,12.77
2023-04-26T07:01:47.025Z,10.52
2023-04-26T07:04:17.561Z,11.85
2023-04-26T07:06:44.734Z,12.50
2023-04-26T07:09:14.149Z,10.63
2023-04-26T07:11:51.197Z,7.82
2023-04-26T07:14:22.709Z,10.98
2023-04-26T07:16:49.669Z,14.20
2023-04-26T07:19:16.312Z,7.68
2023-04-26T07:21:45.513Z,12.95
2023-04-26T07:24:13.657Z,8.90
2023-04-26T07:26:42.848Z,12.73
2023-04-26T07:29:10.598Z,7.78
2023-04-26T07:31:39.818Z,14.35
2023-04-26T07:34:07.707Z,13.82
2023-04-26T07:36:37.176Z,9.07
2023-04-26T07:39:05.415Z,14.82
2023-04-26T07:41:35.688Z,11.35
2023-04-26T07:44:02.557Z,13.73
2023-04-26T07:46:35.189Z,14.02
2023-04-26T07:49:04.826Z,14.88
2023-04-26T07:51:40.083Z,15.48
2023-04-26T07:54:09.727Z,16.73
2023-04-26T07:56:41.920Z,14.73
2023-04-26T07:59:08.708Z,16.67
2023-04-26T08:01:35.506Z,12.25
2023-04-26T08:04:05.887Z,16.45
2023-04-26T08:06:33.471Z,18.67
2023-04-26T08:09:00.667Z,18.48
2023-04-26T08:11:39.571Z,17.40
2023-04-26T08:14:06.719Z,14.15
2023-04-26T08:16:37.962Z,14.80
2023-04-26T08:19:04.699Z,20.23
2023-04-26T08:21:32.774Z,10.02
2023-04-26T08:23:59.513Z,11.90
2023-04-26T08:26:53.742Z,14.85
2023-04-26T08:29:23.768Z,11.98
2023-04-26T08:32:02.257Z,15.73
2023-04-26T08:34:29.482Z,15.93
2023-04-26T08:36:57.170Z,15.32
2023-04-26T08:39:24.337Z,13.45
2023-04-26T08:41:55.970Z,9.73
2023-04-26T08:44:31.910Z,11.63
2023-04-26T08:47:16.673Z,12.60
2023-04-26T08:49:56.577Z,10.93
2023-04-26T08:52:31.638Z,8.65
2023-04-26T08:55:10.986Z,9.30
2023-04-26T08:57:58.822Z,10.85
2023-04-26T09:00:26.189Z,11.45
2023-04-26T09:02:53.691Z,10.77
2023-04-26T09:05:27.449Z,12.82
2023-04-26T09:08:06.881Z,10.40
2023-04-26T09:10:36.664Z,9.13
2023-04-26T09:13:03.440Z,9.38
2023-04-26T09:15:41.887Z,16.60
2023-04-26T09:18:19.960Z,4.43
2023-04-26T09:21:06.177Z,8.13
2023-04-26T09:23:33.113Z,5.38
2023-04-26T09:26:21.107Z,8.65
2023-04-26T09:28:49.528Z,4.70
2023-04-26T09:31:49.831Z,6.50
2023-04-26T09:34:21.354Z,6.28
2023-04-26T09:36:57.145Z,2.42
2023-04-26T09:39:51.339Z,5.80
2023-04-26T09:42:19.295Z,6.93
2023-04-26T09:44:47.570Z,11.60
2023-04-26T09:47:14.424Z,6.28
2023-04-26T09:49:48.743Z,11.60
2023-04-26T09:52:18.416Z,7.25
2023-04-26T09:54:48.027Z,11.73
2023-04-26T09:57:30.987Z,3.90
2023-04-26T10:00:17.285Z,5.70
2023-04-26T10:02:45.029Z,6.72
2023-04-26T10:05:41.954Z,6.85
2023-04-26T10:08:14.618Z,6.72
2023-04-26T10:13:30.112Z,8.02
2023-04-26T10:15:59.811Z,5.55
2023-04-26T10:18:29.536Z,7.05
2023-04-26T10:21:16.127Z,6.32
2023-04-26T10:23:46.041Z,3.90
2023-04-26T10:26:57.839Z,8.45
2023-04-26T10:29:37.410Z,3.65
2023-04-26T10:32:04.677Z,4.53
2023-04-26T10:34:33.631Z,5.53
2023-04-26T10:37:17.701Z,5.35
2023-04-26T10:42:36.766Z,6.55
2023-04-26T10:45:39.730Z,6.70
2023-04-26T10:48:31.258Z,7.55
2023-04-26T10:51:12.433Z,4.57
2023-04-26T10:53:48.105Z,5.68
2023-04-26T10:56:24.020Z,4.72
2023-04-26T11:01:48.223Z,3.83
2023-04-26T11:04:21.183Z,5.30
2023-04-26T11:06:59.257Z,6.47
2023-04-26T11:09:46.385Z,3.90
2023-04-26T11:12:20.637Z,5.85
2023-04-26T11:14:47.531Z,3.15
2023-04-26T11:17:14.329Z,3.90
2023-04-26T11:19:49.560Z,3.00
2023-04-26T11:22:16.169Z,5.78
2023-04-26T11:24:47.523Z,6.05
2023-04-26T11:27:14.270Z,3.63
2023-04-26T11:29:41.678Z,7.20
2023-04-26T11:32:09.010Z,5.53
2023-04-26T11:34:38.265Z,6.28
2023-04-26T11:37:09.136Z,5.72
2023-04-26T11:39:37.701Z,4.03
2023-04-26T11:42:23.015Z,3.60
2023-04-26T11:44:57.149Z,5.82
2023-04-26T11:47:35.694Z,7.45
2023-04-26T11:50:07.526Z,4.78
2023-04-26T11:52:34.455Z,6.10
2023-04-26T11:55:10.806Z,5.32
2023-04-26T11:57:37.630Z,3.70
2023-04-26T12:02:58.281Z,4.53
2023-04-26T12:05:35.344Z,10.30
2023-04-26T12:08:03.290Z,5.63
2023-04-26T12:10:36.272Z,3.03
2023-04-26T12:13:05.983Z,3.13
2023-04-26T12:15:34.049Z,6.10
2023-04-26T12:18:11.081Z,7.65
2023-04-26T12:20:43.596Z,8.13
2023-04-26T12:23:25.395Z,4.72
2023-04-26T12:26:02.168Z,8.23
2023-04-26T12:28:30.160Z,5.43
2023-04-26T12:31:15.777Z,3.40
2023-04-26T12:33:49.888Z,4.60
2023-04-26T12:36:27.879Z,6.25
2023-04-26T12:38:54.520Z,3.38
2023-04-26T12:41:21.176Z,2.67
2023-04-26T12:43:47.748Z,7.57
2023-04-26T12:46:14.907Z,2.03
2023-04-26T12:48:42.606Z,2.72
2023-04-26T12:51:16.306Z,2.08
2023-04-26T12:56:36.637Z,4.40
2023-04-26T12:59:10.417Z,2.63
2023-04-26T13:01:37.230Z,3.53
2023-04-26T13:04:06.563Z,2.60
2023-04-26T13:06:33.992Z,3.78
2023-04-26T13:09:04.553Z,3.58
2023-04-26T13:11:31.225Z,2.00
2023-04-26T13:14:07.040Z,5.07
2023-04-26T13:16:34.196Z,2.47
2023-04-26T13:19:01.285Z,5.82
2023-04-26T13:21:35.014Z,2.47
2023-04-26T13:24:01.658Z,2.30
2023-04-26T13:26:28.444Z,3.83
2023-04-26T13:28:55.300Z,3.13
2023-04-26T13:31:25.227Z,2.30
2023-04-26T13:33:54.551Z,3.03
2023-04-26T13:36:21.513Z,4.20
2023-04-26T13:38:51.877Z,1.52
2023-04-26T13:41:26.179Z,4.30
2023-04-26T13:44:11.093Z,3.50
2023-04-26T13:46:37.745Z,3.97
2023-04-26T13:49:08.277Z,2.17
2023-04-26T13:51:34.872Z,2.87
2023-04-26T13:54:07.644Z,1.83
2023-04-26T13:56:35.094Z,6.35
2023-04-26T13:59:03.644Z,4.07
2023-04-26T14:01:30.308Z,5.68
2023-04-26T14:04:03.898Z,7.43
2023-04-26T14:06:32.745Z,1.50
2023-04-26T14:08:59.445Z,5.70
2023-04-26T14:11:29.325Z,6.22
2023-04-26T14:13:59.230Z,1.95
2023-04-26T14:16:26.647Z,3.78
2023-04-26T14:18:54.572Z,5.28
2023-04-26T14:21:21.283Z,2.70
2023-04-26T14:23:50.845Z,2.72
2023-04-26T14:26:20.661Z,3.33
2023-04-26T14:28:51.626Z,2.28
2023-04-26T14:31:19.732Z,4.20
2023-04-26T14:33:53.999Z,1.85
2023-04-26T14:36:28.203Z,2.42
2023-04-26T14:38:57.695Z,3.70
2023-04-26T14:41:27.262Z,5.18
2023-04-26T14:43:54.533Z,1.60
2023-04-26T14:46:24.574Z,3.90
2023-04-26T14:48:55.083Z,1.50
2023-04-26T14:51:21.932Z,4.78
2023-04-26T14:53:53.271Z,2.53
2023-04-26T14:56:28.774Z,3.33
2023-04-26T14:58:58.512Z,2.83
2023-04-26T15:01:25.553Z,2.38
2023-04-26T15:04:00.484Z,5.38
2023-04-26T15:06:28.777Z,4.03
2023-04-26T15:08:58.759Z,2.60
2023-04-26T15:11:32.464Z,1.45
2023-04-26T15:14:01.808Z,3.97
2023-04-26T15:16:28.955Z,7.35
2023-04-26T15:18:58.538Z,3.00
2023-04-26T15:24:09.848Z,2.17
2023-04-26T15:26:46.262Z,2.58
2023-04-26T15:29:16.055Z,2.58
2023-04-26T15:31:43.223Z,1.85
2023-04-26T15:34:12.413Z,7.93
2023-04-26T15:36:38.999Z,4.47
2023-04-26T15:39:06.204Z,2.50
2023-04-26T15:41:34.429Z,3.72
2023-04-26T15:44:09.720Z,2.83
2023-04-26T15:46:45.694Z,6.18
2023-04-26T15:49:13.274Z,4.53
2023-04-26T15:51:44.515Z,2.97
2023-04-26T15:54:16.849Z,4.63
2023-04-26T15:59:22.236Z,4.35
2023-04-26T16:01:54.292Z,2.63
2023-04-26T16:04:22.234Z,2.85
2023-04-26T16:07:01.585Z,3.08
2023-04-26T16:09:29.153Z,4.20
2023-04-26T16:12:13.869Z,7.43
2023-04-26T16:14:45.160Z,4.07
2023-04-26T16:17:12.045Z,3.63
2023-04-26T16:19:38.891Z,3.80
2023-04-26T16:22:06.000Z,1.90
2023-04-26T16:24:32.815Z,4.43
2023-04-26T16:26:59.728Z,3.58
2023-04-26T16:29:26.461Z,3.65
2023-04-26T16:31:53.316Z,13.88
2023-04-26T17:03:31.132Z,2.50
2023-04-26T17:05:58.813Z,5.22
2023-04-26T17:08:33.593Z,5.22
2023-04-26T17:11:02.030Z,3.88
2023-04-26T17:13:33.452Z,2.83
2023-04-26T17:16:00.265Z,5.30
2023-04-26T17:18:26.827Z,4.25
2023-04-26T17:20:56.356Z,3.00
2023-04-26T17:23:22.975Z,4.55
2023-04-26T17:25:49.684Z,4.47
2023-04-26T17:28:16.675Z,4.68
2023-04-26T17:30:43.604Z,2.15
2023-04-26T17:33:10.706Z,2.53
2023-04-26T17:35:38.225Z,3.35
2023-04-26T17:38:05.114Z,3.10
2023-04-26T17:40:31.982Z,5.40
2023-04-26T17:42:58.566Z,6.45
2023-04-26T17:45:25.315Z,8.77
2023-04-26T17:47:52.124Z,2.50
2023-04-26T17:50:21.213Z,3.95
2023-04-26T17:52:50.916Z,7.30
2023-04-26T17:55:17.781Z,7.65
2023-04-26T17:57:47.485Z,4.07
2023-04-26T18:00:14.971Z,4.10
2023-04-26T18:02:42.452Z,4.25
2023-04-26T18:05:10.331Z,9.27
2023-04-26T18:07:36.988Z,5.30
2023-04-26T18:10:04.956Z,7.70
2023-04-26T18:12:32.113Z,3.13
2023-04-26T18:14:59.092Z,9.00
2023-04-26T18:17:25.914Z,8.30
2023-04-26T18:19:52.776Z,5.93
2023-04-26T18:22:20.260Z,8.10
2023-04-26T18:24:49.867Z,6.75
2023-04-26T18:27:16.739Z,5.28
2023-04-26T18:29:44.274Z,7.35
2023-04-26T18:32:17.140Z,2.60
2023-04-26T18:34:44.316Z,4.05
2023-04-26T18:37:12.069Z,4.13
2023-04-26T18:39:38.931Z,5.70
2023-04-26T18:42:06.011Z,6.93
2023-04-26T18:44:32.903Z,6.40
2023-04-26T18:46:59.616Z,4.38
2023-04-26T18:49:29.322Z,6.32
2023-04-26T18:51:58.863Z,5.13
2023-04-26T18:54:26.396Z,5.85
2023-04-26T18:56:53.144Z,5.32
2023-04-26T18:59:19.897Z,7.25
2023-04-26T19:01:47.662Z,5.80
2023-04-26T19:04:14.652Z,7.28
2023-04-26T19:06:41.922Z,6.50
2023-04-26T19:09:11.858Z,3.50
2023-04-26T19:11:39.048Z,5.50
2023-04-26T19:14:06.264Z,8.00
2023-04-26T19:16:32.973Z,8.25
2023-04-26T19:19:00.558Z,10.32
2023-04-26T19:21:29.899Z,4.78
2023-04-26T19:23:56.601Z,4.38
2023-04-26T19:26:23.299Z,7.55
2023-04-26T19:28:49.882Z,6.82
2023-04-26T19:31:16.616Z,6.00
2023-04-26T19:33:54.146Z,6.55
2023-04-26T19:36:20.878Z,4.30
2023-04-26T19:38:48.563Z,9.43
2023-04-26T19:41:16.121Z,4.78
2023-04-26T19:43:45.618Z,5.00
2023-04-26T19:46:15.972Z,4.82
2023-04-26T19:48:44.312Z,6.38
2023-04-26T19:51:20.751Z,8.50
2023-04-26T19:53:49.479Z,6.05
2023-04-26T19:56:16.726Z,9.20
2023-04-26T19:58:43.871Z,7.63
2023-04-26T20:01:14.333Z,4.45
2023-04-26T20:03:44.378Z,6.30
2023-04-26T20:06:22.157Z,6.03
2023-04-26T20:08:49.714Z,9.23
2023-04-26T20:11:17.601Z,7.90
2023-04-26T20:13:45.274Z,9.02
2023-04-26T20:16:13.158Z,10.90
2023-04-26T20:18:42.796Z,7.07
2023-04-26T20:21:09.682Z,8.93
2023-04-26T20:23:36.239Z,10.32
2023-04-26T20:26:05.858Z,9.90
2023-04-26T20:28:32.989Z,6.70
2023-04-26T20:30:59.635Z,10.98
2023-04-26T20:33:29.264Z,9.10
2023-04-26T20:35:58.605Z,8.73
2023-04-26T20:38:25.489Z,10.00
2023-04-26T20:40:53.218Z,5.75
2023-04-26T20:43:20.058Z,9.70
2023-04-26T20:45:48.242Z,13.38
2023-04-26T20:48:15.201Z,7.70
2023-04-26T20:51:01.593Z,10.75
2023-04-26T20:53:28.339Z,8.75
2023-04-26T20:55:54.951Z,9.38
2023-04-26T20:58:21.688Z,7.68
2023-04-26T21:00:55.761Z,9.70
2023-04-26T21:03:23.181Z,8.55
2023-04-26T21:05:50.036Z,9.55
2023-04-26T21:08:16.805Z,9.57
2023-04-26T21:10:46.217Z,6.72
2023-04-26T21:13:14.851Z,7.13
2023-04-26T21:15:41.915Z,8.43
2023-04-26T21:18:08.609Z,5.95
2023-04-26T21:20:39.145Z,9.40
2023-04-26T21:23:11.850Z,8.98
2023-04-26T21:25:38.576Z,5.93
2023-04-26T21:28:05.043Z,6.07
2023-04-26T21:30:33.292Z,11.93
2023-04-26T21:33:00.726Z,11.48
2023-04-26T21:35:31.962Z,12.88
2023-04-26T21:37:59.854Z,10.63
2023-04-26T21:40:26.713Z,10.43
2023-04-26T21:43:04.349Z,6.25
2023-04-26T21:45:32.088Z,10.38
2023-04-26T21:48:00.540Z,9.38
2023-04-26T21:50:27.224Z,12.70
2023-04-26T21:52:57.229Z,9.23
2023-04-26T21:55:26.070Z,12.15
2023-04-26T21:57:52.753Z,21.33
2023-04-26T22:00:19.745Z,16.55
2023-04-26T22:02:46.788Z,23.52
2023-04-26T22:05:13.543Z,13.70
2023-04-26T22:07:40.386Z,14.77
2023-04-26T22:10:07.497Z,15.15
2023-04-26T22:12:34.432Z,14.48
2023-04-26T22:15:07.440Z,15.85
2023-04-26T22:17:34.293Z,15.07
2023-04-26T22:20:00.957Z,11.88
2023-04-26T22:22:28.411Z,19.13
2023-04-26T22:24:55.090Z,17.42
2023-04-26T22:27:27.885Z,10.68
2023-04-26T22:29:55.663Z,12.65
2023-04-26T22:32:23.310Z,10.65
2023-04-26T22:34:53.581Z,13.48
2023-04-26T22:37:24.395Z,7.97
2023-04-26T22:39:53.246Z,13.40
2023-04-26T22:42:20.065Z,8.65
2023-04-26T22:44:46.953Z,9.20
2023-04-26T22:47:13.975Z,7.28
2023-04-26T22:49:45.830Z,13.63
2023-04-26T22:52:23.722Z,11.15
2023-04-26T22:57:22.678Z,12.05
2023-04-26T22:59:49.361Z,13.15
2023-04-26T23:02:16.239Z,11.23
2023-04-26T23:04:48.224Z,11.25
2023-04-26T23:07:15.044Z,17.08
2023-04-26T23:09:42.068Z,8.13
2023-04-26T23:12:09.097Z,13.07
2023-04-26T23:14:35.937Z,13.48
2023-04-26T23:17:03.076Z,12.13
2023-04-26T23:19:30.048Z,11.32
2023-04-26T23:21:56.627Z,14.07
2023-04-26T23:24:23.423Z,11.52
2023-04-26T23:26:53.088Z,15.10
2023-04-26T23:29:22.045Z,10.80
2023-04-26T23:31:48.899Z,17.13
2023-04-26T23:34:15.685Z,13.27
2023-04-26T23:36:42.785Z,12.05
2023-04-26T23:39:22.816Z,14.18
2023-04-26T23:41:49.671Z,16.17
2023-04-26T23:44:17.084Z,15.35
2023-04-26T23:46:43.920Z,17.88
2023-04-26T23:49:10.975Z,13.65
2023-04-26T23:51:38.060Z,16.73
2023-04-26T23:54:04.785Z,16.80
2023-04-26T23:56:31.608Z,17.88
2023-04-26T23:58:58.496Z,19.05
